createdAt,value
2018-05-16T00:00:21.911Z,14.73
2018-05-16T00:01:21.834Z,14.60
2018-05-16T00:02:21.753Z,14.63
2018-05-16T00:03:21.686Z,14.59
2018-05-16T00:04:21.604Z,14.66
2018-05-16T00:05:21.526Z,14.66
2018-05-16T00:06:21.449Z,14.65
2018-05-16T00:07:21.372Z,14.66
2018-05-16T00:08:21.297Z,14.65
2018-05-16T00:09:21.228Z,14.66
2018-05-16T00:10:21.174Z,14.60
2018-05-16T00:11:21.068Z,14.66
2018-05-16T00:12:20.995Z,14.68
2018-05-16T00:13:20.916Z,14.51
2018-05-16T00:14:20.840Z,14.54
2018-05-16T00:15:20.778Z,14.54
2018-05-16T00:16:20.694Z,14.41
2018-05-16T00:17:20.612Z,14.51
2018-05-16T00:18:20.533Z,14.48
2018-05-16T00:19:20.461Z,14.47
2018-05-16T00:20:20.395Z,14.50
2018-05-16T00:21:20.306Z,14.48
2018-05-16T00:22:20.229Z,14.50
2018-05-16T00:23:20.154Z,14.36
2018-05-16T00:24:20.078Z,14.44
2018-05-16T00:25:20.005Z,14.41
2018-05-16T00:26:19.925Z,14.36
2018-05-16T00:27:19.855Z,14.33
2018-05-16T00:28:19.775Z,14.37
2018-05-16T00:29:19.698Z,14.40
2018-05-16T00:30:19.620Z,14.40
2018-05-16T00:31:19.546Z,14.37
2018-05-16T00:32:19.474Z,14.41
2018-05-16T00:33:19.390Z,14.41
2018-05-16T00:34:19.320Z,14.32
2018-05-16T00:35:19.237Z,14.36
2018-05-16T00:36:19.163Z,14.29
2018-05-16T00:37:19.089Z,14.29
2018-05-16T00:38:19.010Z,14.32
2018-05-16T00:39:18.934Z,14.28
2018-05-16T00:40:18.856Z,14.30
2018-05-16T00:41:18.785Z,14.26
2018-05-16T00:42:18.705Z,14.25
2018-05-16T00:43:18.626Z,14.32
2018-05-16T00:44:18.552Z,14.32
2018-05-16T00:45:18.476Z,14.35
2018-05-16T00:46:18.403Z,14.32
2018-05-16T00:47:18.323Z,14.26
2018-05-16T00:48:18.248Z,14.33
2018-05-16T00:49:18.176Z,14.18
2018-05-16T00:50:18.097Z,14.10
2018-05-16T00:51:18.017Z,14.07
2018-05-16T00:52:17.960Z,14.08
2018-05-16T00:53:17.864Z,14.10
2018-05-16T00:54:17.785Z,14.08
2018-05-16T00:55:17.710Z,14.03
2018-05-16T00:56:17.637Z,13.93
2018-05-16T00:57:17.565Z,14.00
2018-05-16T00:58:17.489Z,13.96
2018-05-16T00:59:17.408Z,13.96
2018-05-16T01:00:17.329Z,13.95
2018-05-16T01:01:17.252Z,13.97
2018-05-16T01:02:17.181Z,13.92
2018-05-16T01:03:17.103Z,13.96
2018-05-16T01:04:17.022Z,13.96
2018-05-16T01:05:16.948Z,13.97
2018-05-16T01:06:16.867Z,13.93
2018-05-16T01:07:16.792Z,13.96
2018-05-16T01:08:16.716Z,13.97
2018-05-16T01:09:16.644Z,14.04
2018-05-16T01:10:16.562Z,13.97
2018-05-16T01:11:16.490Z,13.93
2018-05-16T01:12:16.412Z,13.87
2018-05-16T01:13:16.335Z,13.85
2018-05-16T01:14:16.272Z,13.83
2018-05-16T01:15:16.178Z,13.78
2018-05-16T01:16:16.102Z,13.87
2018-05-16T01:17:16.027Z,13.87
2018-05-16T01:18:15.948Z,13.77
2018-05-16T01:19:15.872Z,13.68
2018-05-16T01:20:15.812Z,13.72
2018-05-16T01:21:15.718Z,13.74
2018-05-16T01:22:15.653Z,13.75
2018-05-16T01:23:15.565Z,13.79
2018-05-16T01:24:15.488Z,13.75
2018-05-16T01:25:15.438Z,13.77
2018-05-16T01:26:15.335Z,13.68
2018-05-16T01:27:15.262Z,13.52
2018-05-16T01:28:15.183Z,13.53
2018-05-16T01:29:15.110Z,13.52
2018-05-16T01:30:15.031Z,13.47
2018-05-16T01:31:14.949Z,13.46
2018-05-16T01:32:14.875Z,13.41
2018-05-16T01:33:14.796Z,13.49
2018-05-16T01:34:14.721Z,13.46
2018-05-16T01:35:14.643Z,13.53
2018-05-16T01:36:14.580Z,13.56
2018-05-16T01:37:14.495Z,13.53
2018-05-16T01:38:14.417Z,13.54
2018-05-16T01:39:14.335Z,13.54
2018-05-16T01:40:14.258Z,13.49
2018-05-16T01:41:14.187Z,13.47
2018-05-16T01:42:14.105Z,13.49
2018-05-16T01:43:14.027Z,13.49
2018-05-16T01:44:13.954Z,13.52
2018-05-16T01:45:13.875Z,13.49
2018-05-16T01:46:13.794Z,13.49
2018-05-16T01:47:13.737Z,13.47
2018-05-16T01:48:13.641Z,13.49
2018-05-16T01:49:13.565Z,13.53
2018-05-16T01:50:13.502Z,13.56
2018-05-16T01:51:13.411Z,13.53
2018-05-16T01:52:13.334Z,13.50
2018-05-16T01:53:13.259Z,13.50
2018-05-16T01:54:13.180Z,13.46
2018-05-16T01:55:13.105Z,13.49
2018-05-16T01:56:13.030Z,13.49
2018-05-16T01:57:12.950Z,13.46
2018-05-16T01:58:12.874Z,13.46
2018-05-16T01:59:12.797Z,13.44
2018-05-16T02:00:12.721Z,13.44
2018-05-16T02:01:12.647Z,13.44
2018-05-16T02:02:12.574Z,13.38
2018-05-16T02:03:12.511Z,13.37
2018-05-16T02:04:12.413Z,13.41
2018-05-16T02:05:12.336Z,13.38
2018-05-16T02:06:12.258Z,13.35
2018-05-16T02:07:12.180Z,13.37
2018-05-16T02:08:12.104Z,13.33
2018-05-16T02:09:12.027Z,13.38
2018-05-16T02:10:11.949Z,13.33
2018-05-16T02:11:11.873Z,13.37
2018-05-16T02:12:11.810Z,13.35
2018-05-16T02:13:11.722Z,13.28
2018-05-16T02:14:11.643Z,13.30
2018-05-16T02:15:11.565Z,13.30
2018-05-16T02:16:11.488Z,13.27
2018-05-16T02:17:11.410Z,13.20
2018-05-16T02:18:11.331Z,13.28
2018-05-16T02:19:11.256Z,13.30
2018-05-16T02:20:11.210Z,13.20
2018-05-16T02:21:11.100Z,13.23
2018-05-16T02:22:11.024Z,13.16
2018-05-16T02:23:10.957Z,13.12
2018-05-16T02:24:10.869Z,13.12
2018-05-16T02:25:10.796Z,13.12
2018-05-16T02:26:10.716Z,13.09
2018-05-16T02:27:10.639Z,13.08
2018-05-16T02:28:10.560Z,12.95
2018-05-16T02:29:10.483Z,12.94
2018-05-16T02:30:10.407Z,12.93
2018-05-16T02:31:10.329Z,13.03
2018-05-16T02:32:10.261Z,12.97
2018-05-16T02:33:10.176Z,12.91
2018-05-16T02:34:10.099Z,12.86
2018-05-16T02:35:10.021Z,12.94
2018-05-16T02:36:09.942Z,12.94
2018-05-16T02:37:09.891Z,12.86
2018-05-16T02:38:09.804Z,12.90
2018-05-16T02:39:09.709Z,12.87
2018-05-16T02:40:09.637Z,12.97
2018-05-16T02:41:09.560Z,12.94
2018-05-16T02:42:09.479Z,12.95
2018-05-16T02:43:09.402Z,13.03
2018-05-16T02:44:09.323Z,12.93
2018-05-16T02:45:09.249Z,12.94
2018-05-16T02:46:09.168Z,12.94
2018-05-16T02:47:09.092Z,12.93
2018-05-16T02:48:09.024Z,12.91
2018-05-16T02:49:08.938Z,12.94
2018-05-16T02:50:08.870Z,12.91
2018-05-16T02:51:08.794Z,12.97
2018-05-16T02:52:08.707Z,12.95
2018-05-16T02:53:08.631Z,13.04
2018-05-16T02:54:08.563Z,13.00
2018-05-16T02:55:08.472Z,12.90
2018-05-16T02:56:08.397Z,13.00
2018-05-16T02:57:08.321Z,13.01
2018-05-16T02:58:08.259Z,12.98
2018-05-16T02:59:08.166Z,13.09
2018-05-16T03:00:08.094Z,13.12
2018-05-16T03:01:08.023Z,13.13
2018-05-16T03:02:07.939Z,13.12
2018-05-16T03:03:07.855Z,13.18
2018-05-16T03:04:07.777Z,13.09
2018-05-16T03:05:07.699Z,13.05
2018-05-16T03:06:07.633Z,13.05
2018-05-16T03:07:07.544Z,12.93
2018-05-16T03:08:07.479Z,13.01
2018-05-16T03:09:07.390Z,12.97
2018-05-16T03:10:07.324Z,12.97
2018-05-16T03:11:07.237Z,12.94
2018-05-16T03:12:07.189Z,13.00
2018-05-16T03:13:07.081Z,12.91
2018-05-16T03:14:07.020Z,12.87
2018-05-16T03:15:06.926Z,12.98
2018-05-16T03:16:06.849Z,12.97
2018-05-16T03:17:06.774Z,13.00
2018-05-16T03:18:06.694Z,13.09
2018-05-16T03:19:06.616Z,13.05
2018-05-16T03:20:06.587Z,13.11
2018-05-16T03:21:06.462Z,13.12
2018-05-16T03:22:06.383Z,13.09
2018-05-16T03:23:06.314Z,13.12
2018-05-16T03:24:06.234Z,13.23
2018-05-16T03:25:06.151Z,13.13
2018-05-16T03:26:06.074Z,13.13
2018-05-16T03:27:05.999Z,13.13
2018-05-16T03:28:05.926Z,13.11
2018-05-16T03:29:05.842Z,13.11
2018-05-16T03:30:05.766Z,13.23
2018-05-16T03:31:05.714Z,13.11
2018-05-16T03:32:05.610Z,13.19
2018-05-16T03:33:05.536Z,13.13
2018-05-16T03:34:05.456Z,13.13
2018-05-16T03:35:05.379Z,13.13
2018-05-16T03:36:05.302Z,13.11
2018-05-16T03:37:05.225Z,13.19
2018-05-16T03:38:05.146Z,13.16
2018-05-16T03:39:05.077Z,13.13
2018-05-16T03:40:04.994Z,13.09
2018-05-16T03:41:04.917Z,13.13
2018-05-16T03:42:04.839Z,13.11
2018-05-16T03:43:04.761Z,13.12
2018-05-16T03:44:04.681Z,13.04
2018-05-16T03:45:04.607Z,13.12
2018-05-16T03:46:04.530Z,13.05
2018-05-16T03:47:04.451Z,13.11
2018-05-16T03:48:04.373Z,13.12
2018-05-16T03:49:04.306Z,13.03
2018-05-16T03:50:04.220Z,13.11
2018-05-16T03:51:04.141Z,13.15
2018-05-16T03:52:04.104Z,13.15
2018-05-16T03:53:03.988Z,13.05
2018-05-16T03:54:03.907Z,13.19
2018-05-16T03:55:03.831Z,13.15
2018-05-16T03:56:03.757Z,13.08
2018-05-16T03:57:03.678Z,13.13
2018-05-16T03:58:03.599Z,13.05
2018-05-16T03:59:03.520Z,13.01
2018-05-16T04:00:03.444Z,13.04
2018-05-16T04:01:03.380Z,13.01
2018-05-16T04:02:03.300Z,13.11
2018-05-16T04:03:03.214Z,13.11
2018-05-16T04:04:03.140Z,13.11
2018-05-16T04:05:03.070Z,13.09
2018-05-16T04:06:02.979Z,13.15
2018-05-16T04:07:02.936Z,13.19
2018-05-16T04:08:02.830Z,13.25
2018-05-16T04:09:02.748Z,13.23
2018-05-16T04:10:02.672Z,13.27
2018-05-16T04:11:02.594Z,13.22
2018-05-16T04:12:02.518Z,13.27
2018-05-16T04:13:02.441Z,13.22
2018-05-16T04:14:02.360Z,13.30
2018-05-16T04:15:02.286Z,13.25
2018-05-16T04:16:02.206Z,13.28
2018-05-16T04:17:02.130Z,13.30
2018-05-16T04:18:02.054Z,13.37
2018-05-16T04:19:01.992Z,13.41
2018-05-16T04:20:01.898Z,13.35
2018-05-16T04:21:01.822Z,13.39
2018-05-16T04:22:01.745Z,13.38
2018-05-16T04:23:01.673Z,13.37
2018-05-16T04:24:01.588Z,13.42
2018-05-16T04:25:01.518Z,13.39
2018-05-16T04:26:01.437Z,13.33
2018-05-16T04:27:01.363Z,13.47
2018-05-16T04:28:01.283Z,13.46
2018-05-16T04:29:01.202Z,13.42
2018-05-16T04:30:01.127Z,13.42
2018-05-16T04:31:01.047Z,13.44
2018-05-16T04:32:00.973Z,13.44
2018-05-16T04:33:00.893Z,13.47
2018-05-16T04:34:00.816Z,13.46
2018-05-16T04:35:00.740Z,13.49
2018-05-16T04:36:00.661Z,13.42
2018-05-16T04:37:00.584Z,13.42
2018-05-16T04:38:00.505Z,13.49
2018-05-16T04:39:00.433Z,13.47
2018-05-16T04:40:00.352Z,13.39
2018-05-16T04:41:00.292Z,13.42
2018-05-16T04:42:00.203Z,13.42
2018-05-16T04:43:00.131Z,13.42
2018-05-16T04:44:00.043Z,13.44
2018-05-16T04:44:59.971Z,13.42
2018-05-16T04:45:59.888Z,13.52
2018-05-16T04:46:59.813Z,13.49
2018-05-16T04:47:59.734Z,13.52
2018-05-16T04:48:59.655Z,13.46
2018-05-16T04:49:59.579Z,13.47
2018-05-16T04:50:59.502Z,13.46
2018-05-16T04:51:59.425Z,13.44
2018-05-16T04:52:59.371Z,13.39
2018-05-16T04:53:59.272Z,13.49
2018-05-16T04:54:59.201Z,13.47
2018-05-16T04:55:59.125Z,13.50
2018-05-16T04:56:59.040Z,13.49
2018-05-16T04:57:58.962Z,13.49
2018-05-16T04:58:58.887Z,13.56
2018-05-16T04:59:58.808Z,13.56
2018-05-16T05:00:58.819Z,13.59
2018-05-16T05:01:58.654Z,13.56
2018-05-16T05:02:58.579Z,13.59
2018-05-16T05:03:58.501Z,13.57
2018-05-16T05:04:58.424Z,13.63
2018-05-16T05:05:58.347Z,13.68
2018-05-16T05:06:58.325Z,13.59
2018-05-16T05:07:58.197Z,13.67
2018-05-16T05:08:58.193Z,13.63
2018-05-16T05:09:58.038Z,13.62
2018-05-16T05:10:57.960Z,13.74
2018-05-16T05:11:57.885Z,13.72
2018-05-16T05:12:57.808Z,13.68
2018-05-16T05:13:57.748Z,13.72
2018-05-16T05:14:57.651Z,13.71
2018-05-16T05:15:57.574Z,13.72
2018-05-16T05:16:57.515Z,13.70
2018-05-16T05:17:57.419Z,13.78
2018-05-16T05:18:57.348Z,13.67
2018-05-16T05:19:57.266Z,13.72
2018-05-16T05:20:57.191Z,13.70
2018-05-16T05:21:57.112Z,13.68
2018-05-16T05:22:57.048Z,13.65
2018-05-16T05:23:57.049Z,13.67
2018-05-16T05:24:56.879Z,13.68
2018-05-16T05:25:56.858Z,13.70
2018-05-16T05:26:56.729Z,13.70
2018-05-16T05:27:56.649Z,13.78
2018-05-16T05:28:56.576Z,13.70
2018-05-16T05:29:56.501Z,13.77
2018-05-16T05:30:56.428Z,13.74
2018-05-16T05:31:56.344Z,13.87
2018-05-16T05:32:56.334Z,13.85
2018-05-16T05:33:56.189Z,13.78
2018-05-16T05:34:56.110Z,13.85
2018-05-16T05:35:56.036Z,13.78
2018-05-16T05:36:56.022Z,13.74
2018-05-16T05:37:55.877Z,13.85
2018-05-16T05:38:55.804Z,13.77
2018-05-16T05:39:55.725Z,13.85
2018-05-16T05:40:55.649Z,13.89
2018-05-16T05:41:55.571Z,13.92
2018-05-16T05:42:55.494Z,13.95
2018-05-16T05:43:55.427Z,14.00
2018-05-16T05:44:55.356Z,13.95
2018-05-16T05:45:55.262Z,13.96
2018-05-16T05:46:55.186Z,13.99
2018-05-16T05:47:55.112Z,13.96
2018-05-16T05:48:55.034Z,14.00
2018-05-16T05:49:54.955Z,14.04
2018-05-16T05:50:54.880Z,14.04
2018-05-16T05:51:54.875Z,13.93
2018-05-16T05:52:54.736Z,13.97
2018-05-16T05:53:54.646Z,13.93
2018-05-16T05:54:54.573Z,13.99
2018-05-16T05:55:54.496Z,13.97
2018-05-16T05:56:54.417Z,13.97
2018-05-16T05:57:54.404Z,13.97
2018-05-16T05:58:54.286Z,13.97
2018-05-16T05:59:54.184Z,14.04
2018-05-16T06:00:54.111Z,14.03
2018-05-16T06:01:54.567Z,14.03
2018-05-16T06:02:53.955Z,14.10
2018-05-16T06:03:53.898Z,14.11
2018-05-16T06:04:53.804Z,14.08
2018-05-16T06:05:53.779Z,14.11
2018-05-16T06:06:53.650Z,14.10
2018-05-16T06:07:53.593Z,14.07
2018-05-16T06:08:53.571Z,14.08
2018-05-16T06:09:53.420Z,14.05
2018-05-16T06:10:53.343Z,14.11
2018-05-16T06:11:53.270Z,14.07
2018-05-16T06:12:53.189Z,14.05
2018-05-16T06:13:53.109Z,14.05
2018-05-16T06:14:53.037Z,14.08
2018-05-16T06:15:52.957Z,14.04
2018-05-16T06:16:52.881Z,14.07
2018-05-16T06:17:52.804Z,14.10
2018-05-16T06:18:52.727Z,14.07
2018-05-16T06:19:52.719Z,14.12
2018-05-16T06:20:52.578Z,14.14
2018-05-16T06:21:52.505Z,14.22
2018-05-16T06:22:52.426Z,14.23
2018-05-16T06:23:52.344Z,14.18
2018-05-16T06:24:52.277Z,14.25
2018-05-16T06:25:52.191Z,14.22
2018-05-16T06:26:52.170Z,14.26
2018-05-16T06:27:52.050Z,14.22
2018-05-16T06:28:51.960Z,14.22
2018-05-16T06:29:51.883Z,14.32
2018-05-16T06:30:51.806Z,14.26
2018-05-16T06:31:51.732Z,14.29
2018-05-16T06:32:51.688Z,14.23
2018-05-16T06:33:51.580Z,14.26
2018-05-16T06:34:51.504Z,14.23
2018-05-16T06:35:51.421Z,14.29
2018-05-16T06:36:51.360Z,14.23
2018-05-16T06:37:51.269Z,14.32
2018-05-16T06:38:51.192Z,14.36
2018-05-16T06:39:51.115Z,14.41
2018-05-16T06:40:51.039Z,14.37
2018-05-16T06:41:50.962Z,14.29
2018-05-16T06:42:50.886Z,14.37
2018-05-16T06:43:50.809Z,14.37
2018-05-16T06:44:50.755Z,14.33
2018-05-16T06:45:50.725Z,14.37
2018-05-16T06:46:50.579Z,14.43
2018-05-16T06:47:50.506Z,14.43
2018-05-16T06:48:50.429Z,14.45
2018-05-16T06:49:50.349Z,14.48
2018-05-16T06:50:50.271Z,14.54
2018-05-16T06:51:50.217Z,14.55
2018-05-16T06:52:50.144Z,14.53
2018-05-16T06:53:50.044Z,14.54
2018-05-16T06:54:49.973Z,14.66
2018-05-16T06:55:49.903Z,14.65
2018-05-16T06:56:49.814Z,14.62
2018-05-16T06:57:49.743Z,14.66
2018-05-16T06:58:49.661Z,14.70
2018-05-16T06:59:49.586Z,14.77
2018-05-16T07:00:49.514Z,14.73
2018-05-16T07:01:49.450Z,14.82
2018-05-16T07:02:49.360Z,14.79
2018-05-16T07:03:49.281Z,14.79
2018-05-16T07:04:49.203Z,14.81
2018-05-16T07:05:49.128Z,14.79
2018-05-16T07:06:49.107Z,14.81
2018-05-16T07:07:48.974Z,14.78
2018-05-16T07:08:48.896Z,14.81
2018-05-16T07:09:48.820Z,14.81
2018-05-16T07:10:48.746Z,14.82
2018-05-16T07:11:48.690Z,14.86
2018-05-16T07:12:48.600Z,14.81
2018-05-16T07:13:48.514Z,14.78
2018-05-16T07:14:48.467Z,14.79
2018-05-16T07:15:48.364Z,14.82
2018-05-16T07:16:48.352Z,14.84
2018-05-16T07:17:48.225Z,14.77
2018-05-16T07:18:48.204Z,14.78
2018-05-16T07:19:48.077Z,14.82
2018-05-16T07:20:48.003Z,14.79
2018-05-16T07:21:47.911Z,14.85
2018-05-16T07:22:47.932Z,14.78
2018-05-16T07:23:47.754Z,14.84
2018-05-16T07:24:47.682Z,14.91
2018-05-16T07:25:47.599Z,14.78
2018-05-16T07:26:47.546Z,14.88
2018-05-16T07:27:47.449Z,14.88
2018-05-16T07:28:47.374Z,14.88
2018-05-16T07:29:47.295Z,14.94
2018-05-16T07:30:47.222Z,14.91
2018-05-16T07:31:47.144Z,14.96
2018-05-16T07:32:47.075Z,14.99
2018-05-16T07:33:46.991Z,14.84
2018-05-16T07:34:46.916Z,14.96
2018-05-16T07:35:46.853Z,14.97
2018-05-16T07:36:46.764Z,14.99
2018-05-16T07:37:46.717Z,14.94
2018-05-16T07:38:46.735Z,14.99
2018-05-16T07:39:46.596Z,15.02
2018-05-16T07:40:46.511Z,14.97
2018-05-16T07:41:46.445Z,14.92
2018-05-16T07:42:47.039Z,15.02
2018-05-16T07:43:46.245Z,14.92
2018-05-16T07:44:46.159Z,14.92
2018-05-16T07:45:46.126Z,15.07
2018-05-16T07:46:46.001Z,14.99
2018-05-16T07:47:45.932Z,15.06
2018-05-16T07:48:45.855Z,15.07
2018-05-16T07:49:45.774Z,15.09
2018-05-16T07:50:45.699Z,15.17
2018-05-16T07:51:45.623Z,15.11
2018-05-16T07:52:45.547Z,15.10
2018-05-16T07:53:45.470Z,15.15
2018-05-16T07:54:45.397Z,15.02
2018-05-16T07:55:45.317Z,14.96
2018-05-16T07:56:45.243Z,15.03
2018-05-16T07:57:45.168Z,15.02
2018-05-16T07:58:45.094Z,15.06
2018-05-16T07:59:45.095Z,15.09
2018-05-16T08:00:44.956Z,15.06
2018-05-16T08:01:44.863Z,15.02
2018-05-16T08:02:44.788Z,15.10
2018-05-16T08:03:44.713Z,15.11
2018-05-16T08:04:44.638Z,15.22
2018-05-16T08:05:44.560Z,15.21
2018-05-16T08:06:44.482Z,15.31
2018-05-16T08:07:44.469Z,15.10
2018-05-16T08:08:44.334Z,15.15
2018-05-16T08:09:44.255Z,15.10
2018-05-16T08:10:44.182Z,15.15
2018-05-16T08:11:44.106Z,15.19
2018-05-16T08:12:44.045Z,15.19
2018-05-16T08:13:43.952Z,15.18
2018-05-16T08:14:43.880Z,15.09
2018-05-16T08:15:43.807Z,15.09
2018-05-16T08:16:43.728Z,15.04
2018-05-16T08:17:43.655Z,14.91
2018-05-16T08:18:43.574Z,14.92
2018-05-16T08:19:43.499Z,15.06
2018-05-16T08:20:43.423Z,15.04
2018-05-16T08:21:43.437Z,15.07
2018-05-16T08:22:43.274Z,15.07
2018-05-16T08:23:43.195Z,15.09
2018-05-16T08:24:43.124Z,15.11
2018-05-16T08:25:43.041Z,15.07
2018-05-16T08:26:42.994Z,14.97
2018-05-16T08:27:42.911Z,14.85
2018-05-16T08:28:42.895Z,14.92
2018-05-16T08:29:42.751Z,14.92
2018-05-16T08:30:42.671Z,15.02
2018-05-16T08:31:42.589Z,15.04
2018-05-16T08:32:42.517Z,15.02
2018-05-16T08:33:42.437Z,15.06
2018-05-16T08:34:42.361Z,15.02
2018-05-16T08:35:42.286Z,15.11
2018-05-16T08:36:42.231Z,15.15
2018-05-16T08:37:42.159Z,15.11
2018-05-16T08:38:42.059Z,15.22
2018-05-16T08:39:41.987Z,15.35
2018-05-16T08:40:41.909Z,15.47
2018-05-16T08:41:41.846Z,15.46
2018-05-16T08:42:41.755Z,15.54
2018-05-16T08:43:41.688Z,15.58
2018-05-16T08:44:41.613Z,15.49
2018-05-16T08:45:41.535Z,15.49
2018-05-16T08:46:41.454Z,15.52
2018-05-16T08:47:41.389Z,15.52
2018-05-16T08:48:41.304Z,15.51
2018-05-16T08:49:41.233Z,15.54
2018-05-16T08:50:41.154Z,15.52
2018-05-16T08:51:41.077Z,15.40
2018-05-16T08:52:41.006Z,15.40
2018-05-16T08:53:40.929Z,15.35
2018-05-16T08:54:40.852Z,15.27
2018-05-16T08:55:40.773Z,15.28
2018-05-16T08:56:40.706Z,15.24
2018-05-16T08:57:40.621Z,15.42
2018-05-16T08:58:40.547Z,15.43
2018-05-16T08:59:40.482Z,15.52
2018-05-16T09:00:40.396Z,15.43
2018-05-16T09:01:40.321Z,15.44
2018-05-16T09:02:40.244Z,15.36
2018-05-16T09:03:40.177Z,15.42
2018-05-16T09:04:40.103Z,15.43
2018-05-16T09:05:40.016Z,15.52
2018-05-16T09:06:39.943Z,15.57
2018-05-16T09:07:39.872Z,15.59
2018-05-16T09:08:39.794Z,15.65
2018-05-16T09:09:39.716Z,15.77
2018-05-16T09:10:39.641Z,15.90
2018-05-16T09:11:39.568Z,15.91
2018-05-16T09:12:39.492Z,15.86
2018-05-16T09:13:39.420Z,15.82
2018-05-16T09:14:39.358Z,15.76
2018-05-16T09:15:39.262Z,15.68
2018-05-16T09:16:39.192Z,15.59
2018-05-16T09:17:39.123Z,15.57
2018-05-16T09:18:39.039Z,15.54
2018-05-16T09:19:38.963Z,15.65
2018-05-16T09:20:38.889Z,15.72
2018-05-16T09:21:38.810Z,15.67
2018-05-16T09:22:38.736Z,15.65
2018-05-16T09:23:38.659Z,15.65
2018-05-16T09:24:38.586Z,15.59
2018-05-16T09:25:38.513Z,15.64
2018-05-16T09:26:38.433Z,15.68
2018-05-16T09:27:38.358Z,15.70
2018-05-16T09:28:38.283Z,15.70
2018-05-16T09:29:38.223Z,15.70
2018-05-16T09:30:38.130Z,15.62
2018-05-16T09:31:38.055Z,15.51
2018-05-16T09:32:37.980Z,15.55
2018-05-16T09:33:37.910Z,15.49
2018-05-16T09:34:37.829Z,15.57
2018-05-16T09:35:37.752Z,15.62
2018-05-16T09:36:37.679Z,15.65
2018-05-16T09:37:37.602Z,15.72
2018-05-16T09:38:37.527Z,15.65
2018-05-16T09:39:37.450Z,15.62
2018-05-16T09:40:37.374Z,15.64
2018-05-16T09:41:37.328Z,15.70
2018-05-16T09:42:37.242Z,15.73
2018-05-16T09:43:37.149Z,15.83
2018-05-16T09:44:37.072Z,15.82
2018-05-16T09:45:37.016Z,16.05
2018-05-16T09:46:36.922Z,16.28
2018-05-16T09:47:36.858Z,16.42
2018-05-16T09:48:36.771Z,16.54
2018-05-16T09:49:36.702Z,16.64
2018-05-16T09:50:36.629Z,16.72
2018-05-16T09:51:36.730Z,16.81
2018-05-16T09:52:36.471Z,16.84
2018-05-16T09:53:36.394Z,16.83
2018-05-16T09:54:36.319Z,16.87
2018-05-16T09:55:36.243Z,16.94
2018-05-16T09:56:36.171Z,16.97
2018-05-16T09:57:36.104Z,17.09
2018-05-16T09:58:36.020Z,17.16
2018-05-16T09:59:35.944Z,17.27
2018-05-16T10:00:35.873Z,17.33
2018-05-16T10:01:35.795Z,17.20
2018-05-16T10:02:35.719Z,17.11
2018-05-16T10:03:35.647Z,17.16
2018-05-16T10:04:35.575Z,17.09
2018-05-16T10:05:35.501Z,17.05
2018-05-16T10:06:35.423Z,16.96
2018-05-16T10:07:35.365Z,17.02
2018-05-16T10:08:35.273Z,16.97
2018-05-16T10:09:35.236Z,17.08
2018-05-16T10:10:35.122Z,17.08
2018-05-16T10:11:35.052Z,17.08
2018-05-16T10:12:34.980Z,17.08
2018-05-16T10:13:34.901Z,16.97
2018-05-16T10:14:34.824Z,16.99
2018-05-16T10:15:34.757Z,17.12
2018-05-16T10:16:34.677Z,17.14
2018-05-16T10:17:34.614Z,17.09
2018-05-16T10:18:34.527Z,17.16
2018-05-16T10:19:34.456Z,17.06
2018-05-16T10:20:34.378Z,17.06
2018-05-16T10:21:34.307Z,17.12
2018-05-16T10:22:34.231Z,16.90
2018-05-16T10:23:34.154Z,16.81
2018-05-16T10:24:34.079Z,16.78
2018-05-16T10:25:34.005Z,16.83
2018-05-16T10:26:33.944Z,16.71
2018-05-16T10:27:33.858Z,16.72
2018-05-16T10:28:33.783Z,16.72
2018-05-16T10:29:33.719Z,16.74
2018-05-16T10:30:33.635Z,16.74
2018-05-16T10:31:33.559Z,16.81
2018-05-16T10:32:33.483Z,16.83
2018-05-16T10:33:33.409Z,16.75
2018-05-16T10:34:33.392Z,16.76
2018-05-16T10:35:33.272Z,16.78
2018-05-16T10:36:33.187Z,16.75
2018-05-16T10:37:33.120Z,16.83
2018-05-16T10:38:33.034Z,16.81
2018-05-16T10:39:32.961Z,16.79
2018-05-16T10:40:32.897Z,16.83
2018-05-16T10:41:32.843Z,16.83
2018-05-16T10:42:32.737Z,16.84
2018-05-16T10:43:32.662Z,16.83
2018-05-16T10:44:32.590Z,16.86
2018-05-16T10:45:32.513Z,16.87
2018-05-16T10:46:32.440Z,16.99
2018-05-16T10:47:32.364Z,17.02
2018-05-16T10:48:32.388Z,17.12
2018-05-16T10:49:32.218Z,17.08
2018-05-16T10:50:32.169Z,17.26
2018-05-16T10:51:32.065Z,17.33
2018-05-16T10:52:32.165Z,17.34
2018-05-16T10:53:31.919Z,17.34
2018-05-16T10:54:31.859Z,17.54
2018-05-16T10:55:31.768Z,17.57
2018-05-16T10:56:31.702Z,17.76
2018-05-16T10:57:31.651Z,17.76
2018-05-16T10:58:31.547Z,17.87
2018-05-16T10:59:31.473Z,18.07
2018-05-16T11:00:31.400Z,18.05
2018-05-16T11:01:31.324Z,18.03
2018-05-16T11:02:31.252Z,18.04
2018-05-16T11:03:31.191Z,18.01
2018-05-16T11:04:31.123Z,18.07
2018-05-16T11:05:31.026Z,17.98
2018-05-16T11:06:30.957Z,18.04
2018-05-16T11:07:30.882Z,18.04
2018-05-16T11:08:30.807Z,18.01
2018-05-16T11:09:30.732Z,18.07
2018-05-16T11:10:30.747Z,18.07
2018-05-16T11:11:30.584Z,18.10
2018-05-16T11:12:30.511Z,18.04
2018-05-16T11:13:30.446Z,18.04
2018-05-16T11:14:30.366Z,18.00
2018-05-16T11:15:30.289Z,17.94
2018-05-16T11:16:30.216Z,17.97
2018-05-16T11:17:30.141Z,17.79
2018-05-16T11:18:30.069Z,17.85
2018-05-16T11:19:29.996Z,17.78
2018-05-16T11:20:29.921Z,17.70
2018-05-16T11:21:29.919Z,17.68
2018-05-16T11:22:29.774Z,17.76
2018-05-16T11:23:29.701Z,17.72
2018-05-16T11:24:29.627Z,17.71
2018-05-16T11:25:29.555Z,17.64
2018-05-16T11:26:29.477Z,17.59
2018-05-16T11:27:29.403Z,17.48
2018-05-16T11:28:29.331Z,17.44
2018-05-16T11:29:29.254Z,17.41
2018-05-16T11:30:29.183Z,17.44
2018-05-16T11:31:29.116Z,17.41
2018-05-16T11:32:29.049Z,17.38
2018-05-16T11:33:28.959Z,17.42
2018-05-16T11:34:28.886Z,17.42
2018-05-16T11:35:28.811Z,17.44
2018-05-16T11:36:28.810Z,17.34
2018-05-16T11:37:28.665Z,17.39
2018-05-16T11:38:28.593Z,17.52
2018-05-16T11:39:28.517Z,17.51
2018-05-16T11:40:28.461Z,17.51
2018-05-16T11:41:28.376Z,17.63
2018-05-16T11:42:28.307Z,17.64
2018-05-16T11:43:28.237Z,17.74
2018-05-16T11:44:28.147Z,17.67
2018-05-16T11:45:28.071Z,17.71
2018-05-16T11:46:27.996Z,17.68
2018-05-16T11:47:27.920Z,17.76
2018-05-16T11:48:27.851Z,17.78
2018-05-16T11:49:27.774Z,17.82
2018-05-16T11:50:27.699Z,17.82
2018-05-16T11:51:27.639Z,17.92
2018-05-16T11:52:27.550Z,17.92
2018-05-16T11:53:27.477Z,17.87
2018-05-16T11:54:27.404Z,17.95
2018-05-16T11:55:27.331Z,17.92
2018-05-16T11:56:27.262Z,17.92
2018-05-16T11:57:27.180Z,17.90
2018-05-16T11:58:27.107Z,17.86
2018-05-16T11:59:27.044Z,17.82
2018-05-16T12:00:26.998Z,17.83
2018-05-16T12:01:26.899Z,17.71
2018-05-16T12:02:26.810Z,17.68
2018-05-16T12:03:26.738Z,17.68
2018-05-16T12:04:26.663Z,17.60
2018-05-16T12:05:26.592Z,17.51
2018-05-16T12:06:26.515Z,17.52
2018-05-16T12:07:26.444Z,17.41
2018-05-16T12:08:26.370Z,17.26
2018-05-16T12:09:26.334Z,17.29
2018-05-16T12:10:26.222Z,17.22
2018-05-16T12:11:26.144Z,17.16
2018-05-16T12:12:26.069Z,17.08
2018-05-16T12:13:25.998Z,17.02
2018-05-16T12:14:25.922Z,16.99
2018-05-16T12:15:25.849Z,16.91
2018-05-16T12:16:25.780Z,16.86
2018-05-16T12:17:25.701Z,16.79
2018-05-16T12:18:25.627Z,16.71
2018-05-16T12:19:25.551Z,16.65
2018-05-16T12:20:25.475Z,16.68
2018-05-16T12:21:25.405Z,16.64
2018-05-16T12:22:25.327Z,16.56
2018-05-16T12:23:25.254Z,16.49
2018-05-16T12:24:25.180Z,16.50
2018-05-16T12:25:25.105Z,16.35
2018-05-16T12:26:25.031Z,16.32
2018-05-16T12:27:24.953Z,16.31
2018-05-16T12:28:24.881Z,16.24
2018-05-16T12:29:24.808Z,16.29
2018-05-16T12:30:24.731Z,16.24
2018-05-16T12:31:24.656Z,16.20
2018-05-16T12:32:24.583Z,16.16
2018-05-16T12:33:24.506Z,16.02
2018-05-16T12:34:24.446Z,16.08
2018-05-16T12:35:24.359Z,15.97
2018-05-16T12:36:24.298Z,15.94
2018-05-16T12:37:24.210Z,15.92
2018-05-16T12:38:24.134Z,15.84
2018-05-16T12:39:24.069Z,15.91
2018-05-16T12:40:23.982Z,15.80
2018-05-16T12:41:23.907Z,15.70
2018-05-16T12:42:23.831Z,15.72
2018-05-16T12:43:23.792Z,15.62
2018-05-16T12:44:23.699Z,15.58
2018-05-16T12:45:23.810Z,15.44
2018-05-16T12:46:23.532Z,15.47
2018-05-16T12:47:23.458Z,15.40
2018-05-16T12:48:23.383Z,15.43
2018-05-16T12:49:23.341Z,15.46
2018-05-16T12:50:23.231Z,15.36
2018-05-16T12:51:23.157Z,15.39